sensor_id;sensor_type;location;lat;lon;timestamp;pressure;altitude;pressure_sealevel;temperature;humidity
29815;BME280;16708;50.426;7.664;2024-03-29T00:00:59;967.43;;;7.06;100.00
29815;BME280;16708;50.426;7.664;2024-03-29T00:05:53;967.14;;;6.79;100.00
29815;BME280;16708;50.426;7.664;2024-03-29T00:10:46;967.21;;;6.84;100.00
29815;BME280;16708;50.426;7.664;2024-03-29T00:15:41;967.23;;;6.90;100.00
29815;BME280;16708;50.426;7.664;2024-03-29T00:20:34;967.11;;;6.91;100.00
29815;BME280;16708;50.426;7.664;2024-03-29T00:25:29;967.07;;;6.96;100.00
29815;BME280;16708;50.426;7.664;2024-03-29T00:30:22;967.04;;;7.00;100.00
29815;BME280;16708;50.426;7.664;2024-03-29T00:35:17;967.01;;;6.99;100.00
29815;BME280;16708;50.426;7.664;2024-03-29T00:40:11;967.17;;;6.91;100.00
29815;BME280;16708;50.426;7.664;2024-03-29T00:45:05;967.23;;;6.96;100.00
29815;BME280;16708;50.426;7.664;2024-03-29T00:49:59;967.29;;;7.00;100.00
29815;BME280;16708;50.426;7.664;2024-03-29T00:54:53;967.13;;;7.08;100.00
29815;BME280;16708;50.426;7.664;2024-03-29T00:59:47;967.19;;;6.97;100.00
29815;BME280;16708;50.426;7.664;2024-03-29T01:04:41;966.73;;;7.14;100.00
29815;BME280;16708;50.426;7.664;2024-03-29T01:09:34;966.87;;;7.01;100.00
29815;BME280;16708;50.426;7.664;2024-03-29T01:14:29;966.93;;;7.18;100.00
29815;BME280;16708;50.426;7.664;2024-03-29T01:19:22;966.85;;;7.24;100.00
29815;BME280;16708;50.426;7.664;2024-03-29T01:24:17;966.76;;;7.25;100.00
29815;BME280;16708;50.426;7.664;2024-03-29T01:29:11;966.90;;;7.40;100.00
29815;BME280;16708;50.426;7.664;2024-03-29T01:34:05;966.79;;;7.44;100.00
29815;BME280;16708;50.426;7.664;2024-03-29T01:39:00;966.90;;;7.45;100.00
29815;BME280;16708;50.426;7.664;2024-03-29T01:43:53;966.65;;;7.45;100.00
29815;BME280;16708;50.426;7.664;2024-03-29T01:48:47;966.50;;;7.43;100.00
29815;BME280;16708;50.426;7.664;2024-03-29T01:53:41;966.46;;;7.51;100.00
29815;BME280;16708;50.426;7.664;2024-03-29T01:58:35;966.39;;;7.60;100.00
29815;BME280;16708;50.426;7.664;2024-03-29T02:03:29;966.47;;;7.49;100.00
29815;BME280;16708;50.426;7.664;2024-03-29T02:08:23;966.25;;;7.42;100.00
29815;BME280;16708;50.426;7.664;2024-03-29T02:13:17;966.02;;;7.42;100.00
29815;BME280;16708;50.426;7.664;2024-03-29T02:18:11;966.00;;;7.34;100.00
29815;BME280;16708;50.426;7.664;2024-03-29T02:23:05;966.00;;;7.49;100.00
29815;BME280;16708;50.426;7.664;2024-03-29T02:27:59;966.00;;;7.48;100.00
29815;BME280;16708;50.426;7.664;2024-03-29T02:32:52;965.97;;;7.47;100.00
29815;BME280;16708;50.426;7.664;2024-03-29T02:37:45;966.01;;;7.38;100.00
29815;BME280;16708;50.426;7.664;2024-03-29T02:42:39;966.01;;;7.51;100.00
29815;BME280;16708;50.426;7.664;2024-03-29T02:47:32;966.33;;;7.75;100.00
29815;BME280;16708;50.426;7.664;2024-03-29T02:52:26;966.26;;;7.82;100.00
29815;BME280;16708;50.426;7.664;2024-03-29T02:57:19;966.05;;;7.77;100.00
29815;BME280;16708;50.426;7.664;2024-03-29T03:02:13;965.98;;;7.94;100.00
29815;BME280;16708;50.426;7.664;2024-03-29T03:07:07;965.89;;;8.06;100.00
29815;BME280;16708;50.426;7.664;2024-03-29T03:12:02;965.69;;;8.02;100.00
29815;BME280;16708;50.426;7.664;2024-03-29T03:16:56;965.77;;;8.05;100.00
29815;BME280;16708;50.426;7.664;2024-03-29T03:21:49;965.96;;;8.17;100.00
29815;BME280;16708;50.426;7.664;2024-03-29T03:26:43;965.94;;;8.16;100.00
29815;BME280;16708;50.426;7.664;2024-03-29T03:31:37;965.98;;;8.12;100.00
29815;BME280;16708;50.426;7.664;2024-03-29T03:36:31;966.04;;;8.21;100.00
29815;BME280;16708;50.426;7.664;2024-03-29T03:41:25;965.92;;;8.27;100.00
29815;BME280;16708;50.426;7.664;2024-03-29T03:46:18;965.91;;;8.36;100.00
29815;BME280;16708;50.426;7.664;2024-03-29T03:51:12;965.95;;;8.31;100.00
29815;BME280;16708;50.426;7.664;2024-03-29T03:56:06;966.17;;;8.39;100.00
29815;BME280;16708;50.426;7.664;2024-03-29T04:01:01;966.15;;;8.54;100.00
29815;BME280;16708;50.426;7.664;2024-03-29T04:05:54;966.33;;;8.65;100.00
29815;BME280;16708;50.426;7.664;2024-03-29T04:10:48;966.32;;;8.65;100.00
29815;BME280;16708;50.426;7.664;2024-03-29T04:15:42;966.14;;;8.49;100.00
29815;BME280;16708;50.426;7.664;2024-03-29T04:20:35;966.05;;;8.57;100.00
29815;BME280;16708;50.426;7.664;2024-03-29T04:25:29;965.93;;;8.37;100.00
29815;BME280;16708;50.426;7.664;2024-03-29T04:30:23;965.90;;;8.35;100.00
29815;BME280;16708;50.426;7.664;2024-03-29T04:35:16;965.91;;;8.41;100.00
29815;BME280;16708;50.426;7.664;2024-03-29T04:40:10;965.70;;;8.36;100.00
29815;BME280;16708;50.426;7.664;2024-03-29T04:45:01;965.75;;;8.36;100.00
29815;BME280;16708;50.426;7.664;2024-03-29T04:49:55;965.75;;;8.33;100.00
29815;BME280;16708;50.426;7.664;2024-03-29T04:54:48;965.72;;;8.32;100.00
29815;BME280;16708;50.426;7.664;2024-03-29T04:59:43;965.85;;;8.36;100.00
29815;BME280;16708;50.426;7.664;2024-03-29T05:04:37;965.98;;;8.32;100.00
29815;BME280;16708;50.426;7.664;2024-03-29T05:09:31;966.03;;;8.47;100.00
29815;BME280;16708;50.426;7.664;2024-03-29T05:14:25;966.09;;;8.52;100.00
29815;BME280;16708;50.426;7.664;2024-03-29T05:19:19;966.08;;;8.61;100.00
29815;BME280;16708;50.426;7.664;2024-03-29T05:24:13;966.10;;;8.45;100.00
29815;BME280;16708;50.426;7.664;2024-03-29T05:29:07;966.27;;;8.41;100.00
29815;BME280;16708;50.426;7.664;2024-03-29T05:34:01;966.25;;;8.35;100.00
29815;BME280;16708;50.426;7.664;2024-03-29T05:38:54;966.19;;;8.29;100.00
29815;BME280;16708;50.426;7.664;2024-03-29T05:43:46;966.18;;;8.32;100.00
29815;BME280;16708;50.426;7.664;2024-03-29T05:48:40;966.11;;;8.36;100.00
29815;BME280;16708;50.426;7.664;2024-03-29T05:53:33;966.11;;;8.37;100.00
29815;BME280;16708;50.426;7.664;2024-03-29T05:58:27;966.22;;;8.36;100.00
29815;BME280;16708;50.426;7.664;2024-03-29T06:03:19;966.16;;;8.42;100.00
29815;BME280;16708;50.426;7.664;2024-03-29T06:08:13;966.40;;;8.50;100.00
29815;BME280;16708;50.426;7.664;2024-03-29T06:13:06;966.44;;;8.50;100.00
29815;BME280;16708;50.426;7.664;2024-03-29T06:18:00;966.57;;;8.48;100.00
29815;BME280;16708;50.426;7.664;2024-03-29T06:22:53;966.46;;;8.48;100.00
29815;BME280;16708;50.426;7.664;2024-03-29T06:27:47;966.48;;;8.60;100.00
29815;BME280;16708;50.426;7.664;2024-03-29T06:32:41;966.58;;;8.66;100.00
29815;BME280;16708;50.426;7.664;2024-03-29T06:37:34;966.57;;;8.77;100.00
29815;BME280;16708;50.426;7.664;2024-03-29T06:42:29;966.47;;;8.74;100.00
29815;BME280;16708;50.426;7.664;2024-03-29T06:47:23;966.60;;;8.69;100.00
29815;BME280;16708;50.426;7.664;2024-03-29T06:52:17;966.56;;;9.08;100.00
29815;BME280;16708;50.426;7.664;2024-03-29T06:57:11;966.68;;;9.11;100.00
29815;BME280;16708;50.426;7.664;2024-03-29T07:02:05;966.91;;;8.74;100.00
29815;BME280;16708;50.426;7.664;2024-03-29T07:07:00;966.92;;;8.73;100.00
29815;BME280;16708;50.426;7.664;2024-03-29T07:11:52;967.03;;;8.80;100.00
29815;BME280;16708;50.426;7.664;2024-03-29T07:16:47;967.06;;;8.80;100.00
29815;BME280;16708;50.426;7.664;2024-03-29T07:21:41;967.01;;;8.91;100.00
29815;BME280;16708;50.426;7.664;2024-03-29T07:26:34;966.99;;;8.96;100.00
29815;BME280;16708;50.426;7.664;2024-03-29T07:31:28;967.23;;;8.93;100.00
29815;BME280;16708;50.426;7.664;2024-03-29T07:36:21;967.13;;;9.08;100.00
29815;BME280;16708;50.426;7.664;2024-03-29T07:41:15;967.06;;;9.25;100.00
29815;BME280;16708;50.426;7.664;2024-03-29T07:46:10;967.30;;;9.19;100.00
29815;BME280;16708;50.426;7.664;2024-03-29T07:51:03;967.27;;;9.23;100.00
29815;BME280;16708;50.426;7.664;2024-03-29T07:55:58;967.22;;;9.41;100.00
29815;BME280;16708;50.426;7.664;2024-03-29T08:00:52;967.08;;;9.53;100.00
29815;BME280;16708;50.426;7.664;2024-03-29T08:05:45;967.17;;;9.38;100.00
29815;BME280;16708;50.426;7.664;2024-03-29T08:10:40;967.14;;;9.65;100.00
29815;BME280;16708;50.426;7.664;2024-03-29T08:15:33;967.19;;;9.60;100.00
29815;BME280;16708;50.426;7.664;2024-03-29T08:20:27;967.11;;;10.28;100.00
29815;BME280;16708;50.426;7.664;2024-03-29T08:25:20;967.03;;;10.33;100.00
29815;BME280;16708;50.426;7.664;2024-03-29T08:30:14;967.11;;;10.20;100.00
29815;BME280;16708;50.426;7.664;2024-03-29T08:35:08;967.04;;;10.19;100.00
29815;BME280;16708;50.426;7.664;2024-03-29T08:40:02;967.09;;;10.32;100.00
29815;BME280;16708;50.426;7.664;2024-03-29T08:44:56;967.26;;;10.06;100.00
29815;BME280;16708;50.426;7.664;2024-03-29T08:49:51;967.18;;;10.26;100.00
29815;BME280;16708;50.426;7.664;2024-03-29T08:54:44;967.23;;;10.30;100.00
29815;BME280;16708;50.426;7.664;2024-03-29T08:59:39;967.27;;;10.54;100.00
29815;BME280;16708;50.426;7.664;2024-03-29T09:04:31;967.29;;;10.42;100.00
29815;BME280;16708;50.426;7.664;2024-03-29T09:09:25;967.17;;;10.35;100.00
29815;BME280;16708;50.426;7.664;2024-03-29T09:14:19;967.44;;;10.46;100.00
29815;BME280;16708;50.426;7.664;2024-03-29T09:19:14;967.42;;;10.54;100.00
29815;BME280;16708;50.426;7.664;2024-03-29T09:24:08;967.24;;;10.39;100.00
29815;BME280;16708;50.426;7.664;2024-03-29T09:29:01;967.46;;;10.44;100.00
29815;BME280;16708;50.426;7.664;2024-03-29T09:33:56;967.42;;;10.58;100.00
29815;BME280;16708;50.426;7.664;2024-03-29T09:38:50;967.43;;;10.57;100.00
29815;BME280;16708;50.426;7.664;2024-03-29T09:43:44;967.78;;;10.49;100.00
29815;BME280;16708;50.426;7.664;2024-03-29T09:48:37;967.64;;;10.73;100.00
29815;BME280;16708;50.426;7.664;2024-03-29T09:53:32;967.69;;;10.73;100.00
29815;BME280;16708;50.426;7.664;2024-03-29T09:58:26;967.91;;;10.85;100.00
29815;BME280;16708;50.426;7.664;2024-03-29T10:03:20;967.92;;;10.99;100.00
29815;BME280;16708;50.426;7.664;2024-03-29T10:08:14;967.61;;;11.02;100.00
29815;BME280;16708;50.426;7.664;2024-03-29T10:13:09;967.68;;;11.45;100.00
29815;BME280;16708;50.426;7.664;2024-03-29T10:18:03;967.70;;;11.86;100.00
29815;BME280;16708;50.426;7.664;2024-03-29T10:22:58;967.65;;;12.16;100.00
29815;BME280;16708;50.426;7.664;2024-03-29T10:27:52;967.57;;;12.48;100.00
29815;BME280;16708;50.426;7.664;2024-03-29T10:32:46;967.95;;;12.58;100.00
29815;BME280;16708;50.426;7.664;2024-03-29T10:37:41;967.77;;;12.40;100.00
29815;BME280;16708;50.426;7.664;2024-03-29T10:42:35;967.87;;;11.93;100.00
29815;BME280;16708;50.426;7.664;2024-03-29T10:47:29;967.81;;;12.05;100.00
29815;BME280;16708;50.426;7.664;2024-03-29T10:52:23;967.80;;;12.47;100.00
29815;BME280;16708;50.426;7.664;2024-03-29T10:57:17;967.79;;;12.13;100.00
29815;BME280;16708;50.426;7.664;2024-03-29T11:02:12;967.84;;;12.23;100.00
29815;BME280;16708;50.426;7.664;2024-03-29T11:07:05;967.83;;;12.07;100.00
29815;BME280;16708;50.426;7.664;2024-03-29T11:11:59;967.91;;;12.20;100.00
29815;BME280;16708;50.426;7.664;2024-03-29T11:16:52;968.16;;;11.65;100.00
29815;BME280;16708;50.426;7.664;2024-03-29T11:21:47;968.00;;;11.52;100.00
29815;BME280;16708;50.426;7.664;2024-03-29T11:26:39;968.07;;;11.55;100.00
29815;BME280;16708;50.426;7.664;2024-03-29T11:31:34;968.12;;;11.34;100.00
29815;BME280;16708;50.426;7.664;2024-03-29T11:36:28;967.83;;;11.02;100.00
29815;BME280;16708;50.426;7.664;2024-03-29T11:41:21;967.72;;;10.90;100.00
29815;BME280;16708;50.426;7.664;2024-03-29T11:46:15;967.77;;;10.88;100.00
29815;BME280;16708;50.426;7.664;2024-03-29T11:51:09;967.75;;;10.75;100.00
29815;BME280;16708;50.426;7.664;2024-03-29T11:56:04;968.01;;;10.84;100.00
29815;BME280;16708;50.426;7.664;2024-03-29T12:00:58;968.27;;;10.87;100.00
29815;BME280;16708;50.426;7.664;2024-03-29T12:05:52;968.24;;;11.01;100.00
29815;BME280;16708;50.426;7.664;2024-03-29T12:10:46;968.39;;;11.13;100.00
29815;BME280;16708;50.426;7.664;2024-03-29T12:15:41;968.53;;;11.01;100.00
29815;BME280;16708;50.426;7.664;2024-03-29T12:20:35;968.53;;;10.91;100.00
29815;BME280;16708;50.426;7.664;2024-03-29T12:25:29;968.50;;;11.01;100.00
29815;BME280;16708;50.426;7.664;2024-03-29T12:35:18;968.49;;;11.18;100.00
29815;BME280;16708;50.426;7.664;2024-03-29T12:40:11;968.79;;;10.97;100.00
29815;BME280;16708;50.426;7.664;2024-03-29T12:45:03;968.94;;;10.99;100.00
29815;BME280;16708;50.426;7.664;2024-03-29T12:49:58;969.12;;;10.87;100.00
29815;BME280;16708;50.426;7.664;2024-03-29T12:54:51;969.11;;;10.75;100.00
29815;BME280;16708;50.426;7.664;2024-03-29T12:59:45;969.13;;;10.85;100.00
29815;BME280;16708;50.426;7.664;2024-03-29T13:04:39;969.22;;;11.06;100.00
29815;BME280;16708;50.426;7.664;2024-03-29T13:09:34;969.14;;;11.32;100.00
29815;BME280;16708;50.426;7.664;2024-03-29T13:14:28;969.24;;;11.59;100.00
29815;BME280;16708;50.426;7.664;2024-03-29T13:19:22;969.10;;;11.50;100.00
29815;BME280;16708;50.426;7.664;2024-03-29T13:24:17;968.98;;;11.69;100.00
29815;BME280;16708;50.426;7.664;2024-03-29T13:29:11;969.05;;;11.48;100.00
29815;BME280;16708;50.426;7.664;2024-03-29T13:34:04;969.19;;;11.66;100.00
29815;BME280;16708;50.426;7.664;2024-03-29T13:38:58;969.01;;;11.55;100.00
29815;BME280;16708;50.426;7.664;2024-03-29T13:43:51;968.79;;;11.81;100.00
29815;BME280;16708;50.426;7.664;2024-03-29T13:48:45;968.89;;;11.84;100.00
29815;BME280;16708;50.426;7.664;2024-03-29T13:53:39;968.76;;;12.03;100.00
29815;BME280;16708;50.426;7.664;2024-03-29T13:58:34;968.71;;;12.12;100.00
29815;BME280;16708;50.426;7.664;2024-03-29T14:03:28;968.86;;;12.30;100.00
29815;BME280;16708;50.426;7.664;2024-03-29T14:08:19;968.86;;;12.41;100.00
29815;BME280;16708;50.426;7.664;2024-03-29T14:13:14;968.93;;;12.65;100.00
29815;BME280;16708;50.426;7.664;2024-03-29T14:18:08;968.94;;;12.15;100.00
29815;BME280;16708;50.426;7.664;2024-03-29T14:23:02;968.99;;;12.31;100.00
29815;BME280;16708;50.426;7.664;2024-03-29T14:27:56;968.98;;;12.43;100.00
29815;BME280;16708;50.426;7.664;2024-03-29T14:32:50;968.93;;;12.08;100.00
29815;BME280;16708;50.426;7.664;2024-03-29T14:37:44;969.03;;;11.98;100.00
29815;BME280;16708;50.426;7.664;2024-03-29T14:42:39;969.02;;;11.99;100.00
29815;BME280;16708;50.426;7.664;2024-03-29T14:47:33;968.94;;;11.84;100.00
29815;BME280;16708;50.426;7.664;2024-03-29T14:52:27;969.07;;;11.76;100.00
29815;BME280;16708;50.426;7.664;2024-03-29T14:57:21;968.91;;;11.84;100.00
29815;BME280;16708;50.426;7.664;2024-03-29T15:02:15;968.84;;;11.72;100.00
29815;BME280;16708;50.426;7.664;2024-03-29T15:07:09;968.91;;;11.86;100.00
29815;BME280;16708;50.426;7.664;2024-03-29T15:12:04;969.03;;;11.56;100.00
29815;BME280;16708;50.426;7.664;2024-03-29T15:16:58;969.00;;;11.40;100.00
29815;BME280;16708;50.426;7.664;2024-03-29T15:21:52;968.95;;;11.27;100.00
29815;BME280;16708;50.426;7.664;2024-03-29T15:26:40;968.94;;;11.29;100.00
29815;BME280;16708;50.426;7.664;2024-03-29T15:31:34;968.87;;;11.22;100.00
29815;BME280;16708;50.426;7.664;2024-03-29T15:36:29;969.03;;;11.03;100.00
29815;BME280;16708;50.426;7.664;2024-03-29T15:41:22;968.98;;;11.06;100.00
29815;BME280;16708;50.426;7.664;2024-03-29T15:46:17;969.02;;;10.86;100.00
29815;BME280;16708;50.426;7.664;2024-03-29T15:51:11;968.98;;;10.76;100.00
29815;BME280;16708;50.426;7.664;2024-03-29T15:56:05;969.12;;;10.63;100.00
29815;BME280;16708;50.426;7.664;2024-03-29T16:00:59;969.20;;;10.52;100.00
29815;BME280;16708;50.426;7.664;2024-03-29T16:05:50;969.15;;;10.52;100.00
29815;BME280;16708;50.426;7.664;2024-03-29T16:10:44;969.07;;;10.55;100.00
29815;BME280;16708;50.426;7.664;2024-03-29T16:15:39;969.32;;;10.46;100.00
29815;BME280;16708;50.426;7.664;2024-03-29T16:20:33;969.48;;;10.40;100.00
29815;BME280;16708;50.426;7.664;2024-03-29T16:25:27;969.66;;;10.35;100.00
29815;BME280;16708;50.426;7.664;2024-03-29T16:30:21;969.87;;;10.26;100.00
29815;BME280;16708;50.426;7.664;2024-03-29T16:35:16;970.00;;;10.11;100.00
29815;BME280;16708;50.426;7.664;2024-03-29T16:40:10;970.05;;;9.97;100.00
29815;BME280;16708;50.426;7.664;2024-03-29T16:45:04;970.12;;;9.91;100.00
29815;BME280;16708;50.426;7.664;2024-03-29T16:49:59;969.99;;;9.82;100.00
29815;BME280;16708;50.426;7.664;2024-03-29T16:54:50;969.89;;;9.84;100.00
29815;BME280;16708;50.426;7.664;2024-03-29T16:59:44;970.13;;;9.77;100.00
29815;BME280;16708;50.426;7.664;2024-03-29T17:04:38;970.06;;;9.65;100.00
29815;BME280;16708;50.426;7.664;2024-03-29T17:09:33;970.14;;;9.62;100.00
29815;BME280;16708;50.426;7.664;2024-03-29T17:14:27;970.28;;;9.55;100.00
29815;BME280;16708;50.426;7.664;2024-03-29T17:19:23;970.27;;;9.65;100.00
29815;BME280;16708;50.426;7.664;2024-03-29T17:24:15;970.31;;;9.57;100.00
29815;BME280;16708;50.426;7.664;2024-03-29T17:29:10;970.51;;;9.56;100.00
29815;BME280;16708;50.426;7.664;2024-03-29T17:34:04;970.41;;;9.50;100.00
29815;BME280;16708;50.426;7.664;2024-03-29T17:38:57;970.54;;;9.34;100.00
29815;BME280;16708;50.426;7.664;2024-03-29T17:43:52;970.51;;;9.32;100.00
29815;BME280;16708;50.426;7.664;2024-03-29T17:48:46;970.67;;;9.34;100.00
29815;BME280;16708;50.426;7.664;2024-03-29T17:53:40;970.51;;;9.29;100.00
29815;BME280;16708;50.426;7.664;2024-03-29T17:58:38;970.61;;;9.24;100.00
29815;BME280;16708;50.426;7.664;2024-03-29T18:03:26;970.36;;;9.24;100.00
29815;BME280;16708;50.426;7.664;2024-03-29T18:08:20;970.21;;;9.23;100.00
29815;BME280;16708;50.426;7.664;2024-03-29T18:13:15;970.25;;;9.21;100.00
29815;BME280;16708;50.426;7.664;2024-03-29T18:18:09;970.25;;;9.18;100.00
29815;BME280;16708;50.426;7.664;2024-03-29T18:23:03;970.41;;;9.12;100.00
29815;BME280;16708;50.426;7.664;2024-03-29T18:27:57;970.21;;;9.10;100.00
29815;BME280;16708;50.426;7.664;2024-03-29T18:32:52;970.13;;;9.10;100.00
29815;BME280;16708;50.426;7.664;2024-03-29T18:37:45;970.13;;;9.04;100.00
29815;BME280;16708;50.426;7.664;2024-03-29T18:42:39;969.83;;;8.98;100.00
29815;BME280;16708;50.426;7.664;2024-03-29T18:47:33;970.10;;;8.91;100.00
29815;BME280;16708;50.426;7.664;2024-03-29T18:52:28;970.38;;;8.78;100.00
29815;BME280;16708;50.426;7.664;2024-03-29T18:57:23;970.56;;;8.68;100.00
29815;BME280;16708;50.426;7.664;2024-03-29T19:02:17;970.80;;;8.58;100.00
29815;BME280;16708;50.426;7.664;2024-03-29T19:07:11;969.97;;;8.60;100.00
29815;BME280;16708;50.426;7.664;2024-03-29T19:12:05;969.98;;;8.64;100.00
29815;BME280;16708;50.426;7.664;2024-03-29T19:17:00;970.03;;;8.66;100.00
29815;BME280;16708;50.426;7.664;2024-03-29T19:21:53;970.04;;;8.56;100.00
29815;BME280;16708;50.426;7.664;2024-03-29T19:26:46;969.93;;;8.58;100.00
29815;BME280;16708;50.426;7.664;2024-03-29T19:31:41;970.05;;;8.61;100.00
29815;BME280;16708;50.426;7.664;2024-03-29T19:36:35;969.90;;;8.69;100.00
29815;BME280;16708;50.426;7.664;2024-03-29T19:41:29;969.85;;;8.69;100.00
29815;BME280;16708;50.426;7.664;2024-03-29T19:46:23;969.91;;;8.76;100.00
29815;BME280;16708;50.426;7.664;2024-03-29T19:51:17;970.12;;;8.78;100.00
29815;BME280;16708;50.426;7.664;2024-03-29T19:56:11;970.10;;;8.83;100.00
29815;BME280;16708;50.426;7.664;2024-03-29T20:01:06;970.14;;;8.87;100.00
29815;BME280;16708;50.426;7.664;2024-03-29T20:06:00;970.26;;;8.94;100.00
29815;BME280;16708;50.426;7.664;2024-03-29T20:10:53;970.26;;;8.97;100.00
29815;BME280;16708;50.426;7.664;2024-03-29T20:15:47;970.29;;;9.02;100.00
29815;BME280;16708;50.426;7.664;2024-03-29T20:20:41;970.38;;;9.02;100.00
29815;BME280;16708;50.426;7.664;2024-03-29T20:25:36;970.22;;;9.01;100.00
29815;BME280;16708;50.426;7.664;2024-03-29T20:30:30;970.11;;;8.96;100.00
29815;BME280;16708;50.426;7.664;2024-03-29T20:35:24;970.06;;;8.90;100.00
29815;BME280;16708;50.426;7.664;2024-03-29T20:40:18;970.16;;;8.91;100.00
29815;BME280;16708;50.426;7.664;2024-03-29T20:45:12;970.10;;;8.91;100.00
29815;BME280;16708;50.426;7.664;2024-03-29T20:50:05;970.06;;;8.84;100.00
29815;BME280;16708;50.426;7.664;2024-03-29T20:54:59;970.03;;;8.80;100.00
29815;BME280;16708;50.426;7.664;2024-03-29T20:59:52;969.88;;;8.75;100.00
29815;BME280;16708;50.426;7.664;2024-03-29T21:04:46;969.97;;;8.71;100.00
29815;BME280;16708;50.426;7.664;2024-03-29T21:09:40;969.98;;;8.72;100.00
29815;BME280;16708;50.426;7.664;2024-03-29T21:14:35;969.95;;;8.72;100.00
29815;BME280;16708;50.426;7.664;2024-03-29T21:19:29;969.94;;;8.71;100.00
29815;BME280;16708;50.426;7.664;2024-03-29T21:24:23;970.01;;;8.74;100.00
29815;BME280;16708;50.426;7.664;2024-03-29T21:29:16;970.00;;;8.70;100.00
29815;BME280;16708;50.426;7.664;2024-03-29T21:34:10;969.91;;;8.65;100.00
29815;BME280;16708;50.426;7.664;2024-03-29T21:39:05;969.90;;;8.61;100.00
29815;BME280;16708;50.426;7.664;2024-03-29T21:44:00;969.72;;;8.51;100.00
29815;BME280;16708;50.426;7.664;2024-03-29T21:48:54;969.65;;;8.44;100.00
29815;BME280;16708;50.426;7.664;2024-03-29T21:53:47;969.73;;;8.26;100.00
29815;BME280;16708;50.426;7.664;2024-03-29T21:58:42;969.82;;;8.22;100.00
29815;BME280;16708;50.426;7.664;2024-03-29T22:03:36;969.80;;;8.19;100.00
29815;BME280;16708;50.426;7.664;2024-03-29T22:08:30;969.66;;;8.22;100.00
29815;BME280;16708;50.426;7.664;2024-03-29T22:13:24;969.49;;;8.28;100.00
29815;BME280;16708;50.426;7.664;2024-03-29T22:18:19;969.45;;;8.43;100.00
29815;BME280;16708;50.426;7.664;2024-03-29T22:23:13;969.60;;;8.46;100.00
29815;BME280;16708;50.426;7.664;2024-03-29T22:28:07;969.49;;;8.35;100.00
29815;BME280;16708;50.426;7.664;2024-03-29T22:33:01;969.54;;;8.32;100.00
29815;BME280;16708;50.426;7.664;2024-03-29T22:37:55;969.39;;;8.28;100.00
29815;BME280;16708;50.426;7.664;2024-03-29T22:42:49;969.44;;;8.32;100.00
29815;BME280;16708;50.426;7.664;2024-03-29T22:47:43;969.31;;;8.16;100.00
29815;BME280;16708;50.426;7.664;2024-03-29T22:52:35;969.29;;;8.11;100.00
29815;BME280;16708;50.426;7.664;2024-03-29T22:57:30;969.39;;;8.18;100.00
29815;BME280;16708;50.426;7.664;2024-03-29T23:02:24;969.39;;;8.10;100.00
29815;BME280;16708;50.426;7.664;2024-03-29T23:07:18;969.59;;;8.03;100.00
29815;BME280;16708;50.426;7.664;2024-03-29T23:12:12;969.72;;;8.08;100.00
29815;BME280;16708;50.426;7.664;2024-03-29T23:17:07;969.91;;;8.05;100.00
29815;BME280;16708;50.426;7.664;2024-03-29T23:22:01;969.81;;;8.27;100.00
29815;BME280;16708;50.426;7.664;2024-03-29T23:26:54;970.16;;;8.21;100.00
29815;BME280;16708;50.426;7.664;2024-03-29T23:31:48;970.20;;;8.21;100.00
29815;BME280;16708;50.426;7.664;2024-03-29T23:36:41;969.97;;;8.30;100.00
29815;BME280;16708;50.426;7.664;2024-03-29T23:41:35;970.02;;;8.27;100.00
29815;BME280;16708;50.426;7.664;2024-03-29T23:46:29;969.75;;;8.23;100.00
29815;BME280;16708;50.426;7.664;2024-03-29T23:51:22;969.98;;;8.18;100.00
29815;BME280;16708;50.426;7.664;2024-03-29T23:56:17;969.74;;;8.10;100.00
